createdAt,value
2022-07-28T00:02:45.341Z,18.20
2022-07-28T00:05:32.561Z,18.20
2022-07-28T00:08:21.628Z,18.20
2022-07-28T00:11:09.257Z,18.10
2022-07-28T00:13:56.679Z,18.10
2022-07-28T00:16:44.010Z,18.10
2022-07-28T00:19:31.402Z,18.10
2022-07-28T00:22:20.322Z,18.10
2022-07-28T00:25:08.022Z,18.10
2022-07-28T00:27:55.282Z,18.00
2022-07-28T00:30:42.531Z,17.90
2022-07-28T00:33:29.666Z,17.90
2022-07-28T00:36:18.516Z,17.90
2022-07-28T00:39:07.447Z,17.90
2022-07-28T00:41:54.628Z,18.00
2022-07-28T00:44:42.642Z,18.00
2022-07-28T00:47:33.793Z,18.00
2022-07-28T00:50:19.525Z,18.00
2022-07-28T00:53:07.862Z,18.00
2022-07-28T00:56:05.472Z,18.00
2022-07-28T00:58:47.190Z,18.00
2022-07-28T01:01:34.505Z,17.90
2022-07-28T01:04:23.384Z,17.90
2022-07-28T01:07:22.284Z,17.90
2022-07-28T01:10:12.441Z,17.90
2022-07-28T01:13:11.862Z,17.90
2022-07-28T01:16:02.181Z,17.90
2022-07-28T01:19:04.557Z,17.90
2022-07-28T01:21:54.010Z,17.90
2022-07-28T01:24:53.374Z,17.90
2022-07-28T01:27:55.897Z,17.90
2022-07-28T01:30:46.127Z,17.80
2022-07-28T01:33:36.462Z,17.80
2022-07-28T01:36:26.991Z,17.80
2022-07-28T01:39:15.849Z,17.80
2022-07-28T01:42:14.359Z,17.80
2022-07-28T01:45:03.123Z,17.80
2022-07-28T01:47:52.670Z,17.80
2022-07-28T01:50:41.208Z,17.80
2022-07-28T01:53:30.998Z,17.80
2022-07-28T01:56:22.329Z,17.80
2022-07-28T01:59:12.143Z,17.80
2022-07-28T02:02:01.755Z,17.70
2022-07-28T02:04:51.289Z,17.80
2022-07-28T02:07:40.101Z,17.80
2022-07-28T02:10:29.853Z,17.80
2022-07-28T02:13:17.581Z,17.80
2022-07-28T02:16:08.102Z,17.90
2022-07-28T02:18:58.028Z,17.90
2022-07-28T02:21:49.260Z,17.90
2022-07-28T02:24:38.112Z,17.90
2022-07-28T02:27:37.427Z,17.90
2022-07-28T02:30:28.003Z,17.90
2022-07-28T02:33:26.303Z,17.90
2022-07-28T02:36:21.780Z,17.90
2022-07-28T02:39:19.193Z,17.90
2022-07-28T02:42:09.833Z,18.00
2022-07-28T02:45:00.395Z,17.90
2022-07-28T02:47:53.992Z,17.90
2022-07-28T02:50:43.575Z,17.90
2022-07-28T02:53:32.654Z,17.90
2022-07-28T02:56:20.874Z,17.90
2022-07-28T02:59:10.889Z,17.90
2022-07-28T03:01:59.573Z,17.90
2022-07-28T03:05:01.323Z,17.90
2022-07-28T03:07:51.243Z,17.90
2022-07-28T03:10:39.831Z,17.90
2022-07-28T03:13:27.167Z,17.90
2022-07-28T03:16:14.546Z,17.90
2022-07-28T03:19:02.158Z,17.80
2022-07-28T03:21:51.347Z,17.80
2022-07-28T03:24:41.911Z,17.80
2022-07-28T03:27:31.964Z,17.80
2022-07-28T03:30:22.456Z,17.80
2022-07-28T03:33:10.273Z,17.90
2022-07-28T03:36:01.989Z,17.90
2022-07-28T03:39:01.552Z,17.90
2022-07-28T03:41:49.989Z,17.90
2022-07-28T03:44:39.498Z,17.90
2022-07-28T03:47:26.955Z,17.90
2022-07-28T03:50:14.158Z,18.00
2022-07-28T03:53:05.995Z,18.00
2022-07-28T03:55:54.556Z,18.10
2022-07-28T03:58:42.189Z,18.10
2022-07-28T04:01:29.759Z,18.20
2022-07-28T04:04:17.875Z,18.20
2022-07-28T04:07:05.811Z,18.20
2022-07-28T04:09:52.997Z,18.30
2022-07-28T04:12:55.488Z,18.20
2022-07-28T04:15:43.091Z,18.20
2022-07-28T04:18:30.399Z,18.30
2022-07-28T04:21:18.077Z,18.30
2022-07-28T04:24:05.884Z,18.30
2022-07-28T04:26:53.235Z,18.40
2022-07-28T04:29:40.595Z,18.30
2022-07-28T04:32:28.186Z,18.30
2022-07-28T04:35:17.612Z,18.40
2022-07-28T04:38:05.805Z,18.40
2022-07-28T04:40:53.247Z,18.50
2022-07-28T04:43:41.170Z,18.50
2022-07-28T04:46:28.901Z,18.60
2022-07-28T04:49:15.963Z,18.60
2022-07-28T04:52:03.646Z,18.70
2022-07-28T04:54:51.196Z,18.70
2022-07-28T04:57:38.587Z,18.60
2022-07-28T05:00:26.414Z,18.70
2022-07-28T05:03:13.847Z,18.60
2022-07-28T05:06:01.298Z,18.70
2022-07-28T05:08:50.652Z,18.70
2022-07-28T05:11:38.325Z,18.70
2022-07-28T05:14:26.352Z,18.70
2022-07-28T05:17:13.517Z,18.80
2022-07-28T05:20:03.443Z,18.80
2022-07-28T05:25:52.862Z,18.80
2022-07-28T05:28:39.981Z,18.80
2022-07-28T05:31:27.994Z,18.80
2022-07-28T05:34:15.871Z,18.90
2022-07-28T05:37:04.435Z,19.00
2022-07-28T05:39:51.713Z,19.00
2022-07-28T05:42:40.518Z,19.10
2022-07-28T05:45:28.046Z,19.10
2022-07-28T05:48:19.870Z,19.20
2022-07-28T05:51:07.287Z,19.20
2022-07-28T05:53:54.351Z,19.30
2022-07-28T05:56:41.536Z,19.50
2022-07-28T05:59:28.846Z,19.50
2022-07-28T06:02:16.367Z,19.50
2022-07-28T06:05:06.448Z,19.40
2022-07-28T06:07:54.132Z,19.50
2022-07-28T06:10:43.255Z,19.60
2022-07-28T06:13:30.470Z,19.70
2022-07-28T06:16:19.618Z,19.60
2022-07-28T06:19:07.373Z,19.80
2022-07-28T06:21:54.630Z,19.80
2022-07-28T06:24:42.261Z,19.90
2022-07-28T06:27:29.892Z,19.90
2022-07-28T06:30:18.494Z,19.90
2022-07-28T06:33:10.713Z,20.10
2022-07-28T06:35:58.072Z,20.00
2022-07-28T06:38:45.295Z,19.90
2022-07-28T06:41:32.696Z,19.90
2022-07-28T06:44:20.607Z,19.90
2022-07-28T06:47:08.074Z,20.20
2022-07-28T06:49:55.587Z,20.30
2022-07-28T06:52:43.367Z,20.30
2022-07-28T06:55:35.401Z,20.30
2022-07-28T06:58:19.860Z,20.30
2022-07-28T07:01:07.431Z,20.50
2022-07-28T07:03:55.514Z,20.60
2022-07-28T07:06:43.275Z,20.50
2022-07-28T07:09:30.711Z,20.80
2022-07-28T07:12:18.407Z,20.80
2022-07-28T07:15:06.641Z,21.00
2022-07-28T07:17:54.248Z,21.00
2022-07-28T07:20:41.502Z,21.20
2022-07-28T07:23:28.958Z,21.20
2022-07-28T07:26:16.306Z,21.30
2022-07-28T07:29:03.820Z,21.40
2022-07-28T07:31:52.974Z,21.40
2022-07-28T07:34:40.707Z,21.40
2022-07-28T07:37:28.497Z,21.30
2022-07-28T07:40:16.011Z,21.40
2022-07-28T07:43:03.648Z,21.50
2022-07-28T07:45:51.054Z,21.30
2022-07-28T07:48:38.266Z,21.40
2022-07-28T07:51:25.820Z,21.50
2022-07-28T07:54:13.653Z,21.60
2022-07-28T07:57:01.457Z,21.40
2022-07-28T07:59:48.782Z,21.50
2022-07-28T08:02:41.708Z,21.50
2022-07-28T08:05:35.812Z,21.30
2022-07-28T08:08:19.534Z,21.50
2022-07-28T08:11:07.169Z,21.60
2022-07-28T08:13:55.402Z,21.70
2022-07-28T08:16:42.781Z,21.60
2022-07-28T08:19:30.107Z,21.80
2022-07-28T08:22:17.723Z,21.90
2022-07-28T08:25:05.382Z,22.00
2022-07-28T08:27:52.968Z,22.20
2022-07-28T08:30:40.626Z,22.20
2022-07-28T08:33:28.152Z,22.10
2022-07-28T08:36:15.614Z,22.20
2022-07-28T08:39:03.705Z,22.40
2022-07-28T08:42:00.102Z,22.60
2022-07-28T08:44:53.592Z,22.90
2022-07-28T08:48:08.230Z,23.00
2022-07-28T08:50:32.263Z,23.10
2022-07-28T08:53:21.512Z,23.20
2022-07-28T08:56:19.753Z,23.30
2022-07-28T08:59:07.203Z,23.60
2022-07-28T09:01:57.663Z,23.40
2022-07-28T09:04:46.275Z,23.40
2022-07-28T09:07:33.639Z,23.40
2022-07-28T09:10:21.954Z,23.50
2022-07-28T09:13:09.167Z,23.50
2022-07-28T09:15:58.784Z,23.70
2022-07-28T09:18:47.448Z,23.80
2022-07-28T09:21:35.556Z,24.20
2022-07-28T09:24:39.895Z,24.50
2022-07-28T09:27:27.262Z,24.60
2022-07-28T09:30:14.831Z,24.30
2022-07-28T09:33:41.829Z,24.30
2022-07-28T09:36:11.423Z,24.30
2022-07-28T09:38:59.006Z,24.50
2022-07-28T09:41:52.361Z,24.80
2022-07-28T09:44:39.679Z,25.00
2022-07-28T09:47:30.579Z,25.40
2022-07-28T09:50:23.729Z,25.40
2022-07-28T09:53:28.180Z,25.60
2022-07-28T09:56:15.167Z,25.60
2022-07-28T09:59:03.700Z,25.50
2022-07-28T10:01:58.598Z,25.90
2022-07-28T10:04:50.151Z,26.00
2022-07-28T10:07:40.873Z,25.60
2022-07-28T10:10:29.380Z,25.80
2022-07-28T10:13:16.563Z,26.00
2022-07-28T10:16:12.127Z,26.40
2022-07-28T10:19:01.816Z,26.30
2022-07-28T10:21:51.242Z,26.30
2022-07-28T10:24:40.217Z,26.80
2022-07-28T10:27:28.857Z,27.10
2022-07-28T10:30:16.164Z,27.30
2022-07-28T10:33:06.571Z,27.70
2022-07-28T10:35:55.219Z,27.40
2022-07-28T10:38:43.286Z,27.50
2022-07-28T10:41:34.432Z,27.30
2022-07-28T10:44:22.499Z,27.50
2022-07-28T10:47:18.614Z,27.60
2022-07-28T10:50:00.148Z,27.50
2022-07-28T10:52:51.518Z,27.30
2022-07-28T10:55:59.001Z,27.30
2022-07-28T10:58:52.072Z,27.40
2022-07-28T11:01:50.381Z,28.20
2022-07-28T11:04:48.872Z,28.40
2022-07-28T11:07:40.113Z,27.80
2022-07-28T11:10:28.292Z,28.10
2022-07-28T11:13:30.260Z,28.50
2022-07-28T11:16:21.959Z,29.10
2022-07-28T11:19:40.102Z,29.30
2022-07-28T11:22:19.437Z,28.80
2022-07-28T11:25:18.750Z,28.80
2022-07-28T11:28:03.281Z,28.70
2022-07-28T11:30:51.606Z,28.50
2022-07-28T11:33:57.319Z,28.60
2022-07-28T11:37:02.531Z,28.50
2022-07-28T11:39:49.812Z,28.90
2022-07-28T11:42:37.012Z,29.30
2022-07-28T11:45:37.842Z,29.20
2022-07-28T11:48:22.265Z,30.10
2022-07-28T11:51:12.994Z,30.20
2022-07-28T11:54:00.477Z,30.80
2022-07-28T11:56:50.913Z,31.50
2022-07-28T11:59:47.174Z,31.60
2022-07-28T12:02:36.047Z,31.00
2022-07-28T12:05:23.589Z,30.50
2022-07-28T12:08:12.182Z,30.50
2022-07-28T12:11:00.425Z,31.20
2022-07-28T12:13:48.376Z,31.50
2022-07-28T12:16:37.685Z,31.70
2022-07-28T12:19:32.881Z,31.90
2022-07-28T12:22:15.864Z,31.80
2022-07-28T12:25:02.915Z,31.40
2022-07-28T12:27:51.101Z,31.00
2022-07-28T12:30:38.984Z,31.20
2022-07-28T12:33:29.694Z,31.30
2022-07-28T12:36:19.033Z,31.90
2022-07-28T12:39:12.790Z,31.70
2022-07-28T12:42:08.116Z,31.20
2022-07-28T12:44:58.450Z,31.40
2022-07-28T12:47:45.781Z,31.60
2022-07-28T12:50:40.988Z,31.80
2022-07-28T12:53:28.616Z,31.40
2022-07-28T12:56:16.112Z,31.80
2022-07-28T12:59:10.927Z,32.10
2022-07-28T13:01:59.614Z,32.40
2022-07-28T13:04:50.979Z,31.60
2022-07-28T13:07:38.455Z,31.30
2022-07-28T13:10:27.749Z,31.10
2022-07-28T13:13:14.988Z,30.80
2022-07-28T13:16:17.004Z,30.80
2022-07-28T13:19:05.514Z,30.70
2022-07-28T13:21:56.544Z,31.00
2022-07-28T13:24:43.381Z,30.80
2022-07-28T13:27:33.008Z,31.00
2022-07-28T13:30:20.484Z,31.80
2022-07-28T13:33:13.630Z,32.30
2022-07-28T13:35:58.683Z,32.30
2022-07-28T13:38:45.882Z,32.50
2022-07-28T13:41:56.704Z,32.30
2022-07-28T13:44:23.126Z,32.20
2022-07-28T13:47:10.955Z,32.00
2022-07-28T13:49:59.685Z,32.00
2022-07-28T13:52:47.278Z,32.70
2022-07-28T13:55:38.084Z,32.60
2022-07-28T13:58:25.645Z,32.10
2022-07-28T14:01:14.650Z,31.30
2022-07-28T14:04:01.921Z,31.80
2022-07-28T14:06:49.772Z,32.10
2022-07-28T14:09:39.499Z,32.30
2022-07-28T14:12:25.932Z,32.30
2022-07-28T14:15:13.202Z,31.60
2022-07-28T14:18:00.877Z,31.40
2022-07-28T14:20:48.145Z,31.60
2022-07-28T14:23:35.786Z,31.50
2022-07-28T14:26:38.677Z,31.70
2022-07-28T14:29:12.541Z,31.80
2022-07-28T14:31:59.887Z,32.00
2022-07-28T14:34:47.385Z,31.80
2022-07-28T14:37:47.441Z,31.70
2022-07-28T14:40:24.147Z,31.80
2022-07-28T14:43:11.556Z,31.90
2022-07-28T14:46:15.074Z,31.80
2022-07-28T14:48:49.926Z,31.80
2022-07-28T14:51:40.441Z,32.00
2022-07-28T14:54:27.659Z,31.70
2022-07-28T14:57:15.630Z,31.40
2022-07-28T15:00:03.060Z,31.00
2022-07-28T15:02:52.758Z,31.00
2022-07-28T15:05:41.057Z,31.20
2022-07-28T15:08:29.447Z,31.40
2022-07-28T15:11:16.844Z,31.50
2022-07-28T15:14:04.446Z,31.50
2022-07-28T15:16:52.600Z,31.10
2022-07-28T15:19:40.241Z,31.10
2022-07-28T15:22:27.404Z,31.10
2022-07-28T15:25:14.943Z,31.30
2022-07-28T15:28:02.461Z,31.40
2022-07-28T15:30:53.047Z,31.40
2022-07-28T15:33:48.337Z,30.80
2022-07-28T15:36:30.324Z,30.80
2022-07-28T15:39:17.853Z,30.90
2022-07-28T15:42:05.227Z,31.10
2022-07-28T15:44:54.452Z,31.10
2022-07-28T15:47:42.503Z,31.00
2022-07-28T15:50:29.770Z,30.60
2022-07-28T15:53:17.764Z,30.60
2022-07-28T15:56:05.939Z,30.70
2022-07-28T15:58:53.320Z,30.80
2022-07-28T16:01:45.332Z,30.80
2022-07-28T16:04:30.053Z,30.90
2022-07-28T16:07:20.067Z,30.40
2022-07-28T16:10:09.556Z,30.40
2022-07-28T16:12:58.834Z,30.10
2022-07-28T16:15:46.278Z,30.10
2022-07-28T16:18:34.010Z,30.10
2022-07-28T16:21:21.684Z,30.10
2022-07-28T16:24:10.681Z,30.10
2022-07-28T16:26:58.177Z,30.20
2022-07-28T16:29:46.144Z,30.00
2022-07-28T16:32:34.098Z,30.00
2022-07-28T16:35:21.557Z,29.90
2022-07-28T16:38:08.756Z,29.80
2022-07-28T16:40:57.087Z,29.70
2022-07-28T16:43:44.962Z,29.60
2022-07-28T16:46:32.614Z,29.40
2022-07-28T16:49:20.091Z,29.30
2022-07-28T16:52:07.392Z,29.50
2022-07-28T16:54:54.928Z,29.50
2022-07-28T16:57:41.814Z,29.30
2022-07-28T17:00:30.870Z,29.20
2022-07-28T17:03:18.305Z,28.90
2022-07-28T17:06:07.176Z,28.80
2022-07-28T17:08:54.578Z,28.80
2022-07-28T17:11:42.498Z,28.80
2022-07-28T17:14:29.696Z,28.70
2022-07-28T17:17:16.696Z,28.80
2022-07-28T17:20:04.737Z,28.80
2022-07-28T17:22:52.046Z,29.00
2022-07-28T17:26:16.201Z,29.10
2022-07-28T17:28:28.388Z,29.20
2022-07-28T17:31:16.155Z,29.10
2022-07-28T17:34:03.312Z,29.20
2022-07-28T17:36:51.227Z,29.20
2022-07-28T17:39:38.669Z,29.30
2022-07-28T17:42:26.321Z,29.10
2022-07-28T17:45:15.636Z,29.00
2022-07-28T17:48:03.189Z,28.90
2022-07-28T17:50:51.314Z,28.90
2022-07-28T17:53:39.288Z,28.80
2022-07-28T17:56:49.572Z,28.70
2022-07-28T17:59:51.658Z,28.70
2022-07-28T18:02:25.894Z,28.70
2022-07-28T18:05:13.020Z,28.80
2022-07-28T18:08:00.705Z,28.80
2022-07-28T18:10:50.329Z,28.80
2022-07-28T18:13:39.973Z,28.80
2022-07-28T18:16:26.770Z,28.80
2022-07-28T18:19:14.073Z,28.60
2022-07-28T18:22:02.331Z,28.50
2022-07-28T18:24:49.625Z,28.30
2022-07-28T18:27:37.139Z,28.10
2022-07-28T18:30:25.721Z,28.00
2022-07-28T18:33:13.347Z,28.10
2022-07-28T18:36:00.625Z,27.80
2022-07-28T18:38:47.994Z,27.60
2022-07-28T18:41:46.711Z,27.50
2022-07-28T18:44:24.598Z,27.40
2022-07-28T18:47:12.262Z,27.30
2022-07-28T18:50:00.464Z,27.10
2022-07-28T18:52:48.786Z,27.10
2022-07-28T18:55:36.273Z,26.90
2022-07-28T18:58:23.556Z,26.80
2022-07-28T19:01:13.268Z,26.80
2022-07-28T19:03:59.703Z,26.60
2022-07-28T19:06:47.105Z,26.50
2022-07-28T19:09:37.015Z,26.40
2022-07-28T19:12:24.507Z,26.40
2022-07-28T19:15:11.913Z,26.30
2022-07-28T19:18:09.971Z,26.20
2022-07-28T19:20:48.781Z,26.00
2022-07-28T19:23:36.084Z,25.90
2022-07-28T19:26:24.148Z,25.80
2022-07-28T19:29:11.824Z,25.60
2022-07-28T19:31:59.368Z,25.50
2022-07-28T19:34:46.501Z,25.40
2022-07-28T19:37:34.190Z,25.40
2022-07-28T19:40:21.828Z,25.40
2022-07-28T19:43:10.485Z,25.40
2022-07-28T19:46:00.103Z,25.30
2022-07-28T19:48:47.441Z,25.30
2022-07-28T19:51:34.818Z,25.20
2022-07-28T19:54:23.352Z,25.20
2022-07-28T19:57:12.361Z,25.10
2022-07-28T19:59:59.788Z,25.10
2022-07-28T20:02:47.237Z,25.10
2022-07-28T20:05:35.059Z,25.00
2022-07-28T20:08:41.925Z,25.00
2022-07-28T20:11:29.190Z,25.00
2022-07-28T20:14:17.396Z,25.10
2022-07-28T20:17:05.089Z,25.00
2022-07-28T20:19:52.849Z,24.90
2022-07-28T20:22:41.277Z,24.90
2022-07-28T20:25:28.894Z,25.00
2022-07-28T20:28:16.095Z,25.00
2022-07-28T20:31:03.473Z,25.00
2022-07-28T20:33:52.665Z,25.00
2022-07-28T20:36:40.304Z,24.90
2022-07-28T20:39:44.272Z,24.80
2022-07-28T20:42:16.503Z,24.80
2022-07-28T20:45:04.823Z,24.80
2022-07-28T20:47:52.501Z,24.70
2022-07-28T20:50:40.883Z,24.60
2022-07-28T20:53:28.237Z,24.60
2022-07-28T20:56:15.532Z,24.60
2022-07-28T20:59:06.633Z,24.70
2022-07-28T21:01:52.143Z,24.60
2022-07-28T21:04:39.865Z,24.60
2022-07-28T21:08:05.379Z,24.60
2022-07-28T21:10:16.949Z,24.60
2022-07-28T21:13:04.340Z,24.60
2022-07-28T21:15:51.663Z,24.60
2022-07-28T21:18:38.874Z,24.50
2022-07-28T21:21:26.498Z,24.50
2022-07-28T21:24:14.279Z,24.40
2022-07-28T21:27:01.826Z,24.40
2022-07-28T21:29:49.164Z,24.30
2022-07-28T21:32:36.630Z,24.30
2022-07-28T21:35:24.786Z,24.30
2022-07-28T21:38:12.114Z,24.40
2022-07-28T21:40:59.610Z,24.30
2022-07-28T21:43:46.845Z,24.30
2022-07-28T21:46:34.528Z,24.30
2022-07-28T21:49:21.883Z,24.30
2022-07-28T21:52:09.517Z,24.20
2022-07-28T21:54:56.841Z,24.20
2022-07-28T21:57:44.136Z,24.20
2022-07-28T22:00:31.625Z,24.20
2022-07-28T22:03:19.145Z,24.20
2022-07-28T22:06:07.473Z,24.20
2022-07-28T22:08:54.498Z,24.20
2022-07-28T22:11:42.282Z,24.20
2022-07-28T22:14:31.487Z,24.10
2022-07-28T22:17:18.827Z,24.10
2022-07-28T22:20:07.060Z,24.10
2022-07-28T22:22:55.564Z,24.10
2022-07-28T22:25:43.294Z,24.00
2022-07-28T22:28:30.904Z,24.00
2022-07-28T22:31:18.415Z,23.90
2022-07-28T22:34:06.341Z,24.00
2022-07-28T22:36:53.917Z,24.00
2022-07-28T22:39:41.894Z,24.00
2022-07-28T22:42:30.033Z,24.00
2022-07-28T22:45:50.146Z,24.10
2022-07-28T22:48:06.726Z,24.00
2022-07-28T22:50:53.907Z,24.00
2022-07-28T22:53:42.500Z,24.00
2022-07-28T22:56:34.794Z,24.10
2022-07-28T22:59:18.909Z,24.10
2022-07-28T23:04:42.107Z,24.20
2022-07-28T23:07:50.927Z,24.20
2022-07-28T23:10:18.824Z,24.20
2022-07-28T23:13:06.471Z,24.20
2022-07-28T23:15:53.795Z,24.30
2022-07-28T23:18:42.456Z,24.30
2022-07-28T23:21:29.733Z,24.20
2022-07-28T23:24:17.911Z,24.20
2022-07-28T23:27:05.691Z,24.10
2022-07-28T23:29:53.159Z,24.20
2022-07-28T23:32:40.711Z,24.20
2022-07-28T23:35:28.398Z,24.30
2022-07-28T23:38:15.993Z,24.30
2022-07-28T23:41:03.163Z,24.20
2022-07-28T23:43:50.722Z,24.20
2022-07-28T23:46:38.354Z,24.20
2022-07-28T23:49:25.759Z,24.10
2022-07-28T23:52:13.208Z,24.20
2022-07-28T23:55:00.870Z,24.10
2022-07-28T23:57:48.377Z,24.10
